Time;durP1;ratioP1;P1;durP2;ratioP2;P2;SDS_P1;SDS_P2;PMS_P1;PMS_P2;Temp;Humidity;BMP_temperature;BMP_pressure;BME280_temperature;BME280_humidity;BME280_pressure;Samples;Min_cycle;Max_cycle;Signal;HPM_P1;HPM_P2
2022/01/14 00:01:00;;;;;;;4.60;2.38;;;;;;;-9.14;57.37;98582.63;4956965;28;20038;-82
2022/01/14 00:03:26;;;;;;;6.30;2.85;;;;;;;-9.30;57.39;98579.38;4941439;28;20061;-82
2022/01/14 00:05:52;;;;;;;4.70;3.00;;;;;;;-9.33;57.48;98576.81;4957414;28;20043;-81
2022/01/14 00:08:19;;;;;;;3.50;2.60;;;;;;;-9.27;57.81;98565.56;4974269;28;20046;-82
2022/01/14 00:10:49;;;;;;;6.65;4.38;;;;;;;-9.31;57.81;98556.97;4941572;28;20125;-83
2022/01/14 00:16:05;;;;;;;3.17;2.60;;;;;;;-9.25;57.88;98543.09;4952995;28;20116;-82
2022/01/14 00:18:31;;;;;;;4.63;3.00;;;;;;;-9.25;58.00;98537.91;4910048;28;20141;-82
2022/01/14 00:21:01;;;;;;;4.35;3.28;;;;;;;-9.16;57.90;98533.47;4925298;28;20101;-83
2022/01/14 00:23:41;;;;;;;4.65;2.80;;;;;;;-9.07;58.04;98519.53;4928964;28;20145;-83
2022/01/14 00:31:53;;;;;;;7.45;2.92;;;;;;;-8.85;57.36;98518.34;4957050;28;20481;-83
2022/01/14 00:34:19;;;;;;;3.42;2.45;;;;;;;-8.87;57.13;98511.47;4927663;28;20358;-83
2022/01/14 00:36:45;;;;;;;2.33;2.15;;;;;;;-9.00;57.03;98492.66;4940744;28;20051;-83
2022/01/14 00:39:12;;;;;;;6.38;3.35;;;;;;;-9.15;57.73;98480.81;4941088;28;20046;-82
2022/01/14 00:41:38;;;;;;;2.47;2.25;;;;;;;-9.17;57.93;98480.00;4894355;28;20035;-84
2022/01/14 00:44:10;;;;;;;9.75;2.80;;;;;;;-9.36;58.34;98475.97;4956933;28;20051;-82
2022/01/14 00:46:40;;;;;;;4.30;2.97;;;;;;;-9.19;58.67;98479.16;4926359;28;20109;-83
2022/01/14 00:49:06;;;;;;;5.45;3.15;;;;;;;-9.13;58.39;98479.06;4924917;28;20145;-82
2022/01/14 00:51:32;;;;;;;4.32;2.95;;;;;;;-9.03;58.42;98465.97;4941245;28;20565;-83
2022/01/14 00:53:58;;;;;;;5.03;3.00;;;;;;;-9.01;58.40;98470.25;4924916;28;20054;-83
2022/01/14 01:01:35;;;;;;;4.22;3.00;;;;;;;-9.20;58.67;98428.28;4959393;28;20556;-83
2022/01/14 01:04:01;;;;;;;4.10;2.60;;;;;;;-9.17;59.03;98419.63;4940579;28;20046;-82
2022/01/14 01:06:27;;;;;;;4.80;3.55;;;;;;;-9.14;58.38;98417.84;4941957;28;20094;-82
2022/01/14 01:08:55;;;;;;;7.38;2.88;;;;;;;-9.05;58.73;98409.06;4974566;28;20134;-83
2022/01/14 01:11:31;;;;;;;3.45;2.70;;;;;;;-9.01;58.75;98407.28;4940804;28;20058;-82
2022/01/14 01:14:17;;;;;;;4.72;3.00;;;;;;;-8.99;58.29;98397.72;4941013;28;20391;-83
2022/01/14 01:16:43;;;;;;;5.32;3.70;;;;;;;-8.90;58.32;98395.00;4930846;28;20117;-82
2022/01/14 01:19:09;;;;;;;3.40;2.58;;;;;;;-8.85;58.05;98382.81;4976290;28;20051;-83
2022/01/14 01:21:35;;;;;;;4.50;3.05;;;;;;;-8.85;58.06;98385.41;4909138;28;20398;-83
2022/01/14 01:24:02;;;;;;;6.28;3.40;;;;;;;-8.91;58.22;98367.38;4924629;28;20426;-82
2022/01/14 01:26:35;;;;;;;7.15;3.45;;;;;;;-8.84;58.22;98368.97;4909258;28;20449;-83
2022/01/14 01:31:38;;;;;;;4.28;3.05;;;;;;;-8.79;58.29;98351.63;4942233;28;20085;-84
2022/01/14 01:34:08;;;;;;;4.32;2.80;;;;;;;-8.88;58.23;98347.44;4957507;28;20046;-83
2022/01/14 01:36:34;;;;;;;4.78;2.85;;;;;;;-8.84;58.87;98338.78;4929626;28;20054;-83
2022/01/14 01:39:00;;;;;;;5.63;3.03;;;;;;;-8.83;58.71;98316.31;4930278;28;20581;-84
2022/01/14 01:41:26;;;;;;;4.13;2.58;;;;;;;-8.78;58.70;98301.53;4959880;28;20126;-83
2022/01/14 01:43:53;;;;;;;4.03;2.90;;;;;;;-8.93;58.97;98312.19;4927935;28;20119;-83
2022/01/14 01:46:20;;;;;;;4.95;3.08;;;;;;;-8.97;59.37;98293.25;4943982;28;20053;-81
2022/01/14 01:48:47;;;;;;;5.07;2.78;;;;;;;-9.06;59.57;98291.72;4912558;28;20054;-82
2022/01/14 01:51:13;;;;;;;5.40;2.80;;;;;;;-9.06;59.80;98285.69;4959590;28;20065;-82
2022/01/14 01:53:39;;;;;;;5.68;2.90;;;;;;;-8.99;59.47;98282.06;4927706;28;20506;-81
2022/01/14 01:56:05;;;;;;;4.85;2.50;;;;;;;-9.01;59.29;98270.06;4976364;28;20058;-82
2022/01/14 01:58:31;;;;;;;4.25;2.78;;;;;;;-9.05;59.27;98251.97;4927524;28;20046;-82
2022/01/14 02:00:57;;;;;;;5.22;2.97;;;;;;;-8.90;58.79;98265.53;4943598;28;20047;-82
2022/01/14 02:03:27;;;;;;;3.72;2.58;;;;;;;-9.03;59.17;98258.84;4976315;28;20478;-83
2022/01/14 02:05:53;;;;;;;6.40;3.05;;;;;;;-9.09;59.57;98241.72;4959452;28;20133;-82
2022/01/14 02:08:19;;;;;;;5.20;3.15;;;;;;;-9.02;59.29;98250.22;4932439;28;20108;-83
2022/01/14 02:10:45;;;;;;;3.88;2.53;;;;;;;-9.16;59.40;98225.44;4961976;28;20078;-82
2022/01/14 02:13:11;;;;;;;2.65;2.00;;;;;;;-9.19;59.69;98220.31;4945771;28;20112;-82
2022/01/14 02:15:49;;;;;;;3.40;2.30;;;;;;;-9.13;59.63;98227.97;5000382;28;20086;-85
2022/01/14 02:23:46;;;;;;;4.22;2.45;;;;;;;-9.38;60.56;98201.69;4961007;28;20059;-83
2022/01/14 02:26:13;;;;;;;3.42;2.10;;;;;;;-9.39;60.33;98183.63;4949968;29;20105;-86
2022/01/14 02:28:41;;;;;;;3.25;2.40;;;;;;;-9.40;60.34;98192.25;4893110;29;20074;-82
2022/01/14 02:31:07;;;;;;;4.50;2.22;;;;;;;-9.33;60.37;98173.16;4924352;29;20463;-87
2022/01/14 02:33:33;;;;;;;2.83;2.33;;;;;;;-9.30;60.38;98175.69;4908526;29;20491;-86
2022/01/14 02:35:59;;;;;;;9.65;2.65;;;;;;;-9.27;60.01;98144.56;4911542;29;20134;-86
2022/01/14 02:38:25;;;;;;;3.53;2.65;;;;;;;-9.35;59.76;98149.06;4908963;29;20051;-85
2022/01/14 02:40:51;;;;;;;5.32;3.25;;;;;;;-9.26;59.78;98153.19;4892580;29;20098;-84
2022/01/14 02:43:17;;;;;;;3.10;2.13;;;;;;;-9.24;59.86;98135.91;4908361;29;20239;-86
2022/01/14 02:45:50;;;;;;;5.53;2.92;;;;;;;-9.15;59.81;98130.53;4907613;29;20094;-85
2022/01/14 02:48:17;;;;;;;3.45;2.42;;;;;;;-9.20;59.84;98128.03;4909339;29;20043;-85
2022/01/14 02:51:09;;;;;;;4.32;2.55;;;;;;;-9.22;60.02;98126.34;4878746;29;20047;-85
2022/01/14 02:53:55;;;;;;;5.53;2.97;;;;;;;-9.24;60.14;98116.06;4916491;29;20043;-84
2022/01/14 02:56:20;;;;;;;3.38;2.55;;;;;;;-9.13;60.32;98116.69;4924055;28;20047;-84
2022/01/14 02:58:47;;;;;;;5.88;2.65;;;;;;;-9.03;59.80;98099.19;4931603;29;20059;-85
2022/01/14 03:01:18;;;;;;;6.40;2.72;;;;;;;-8.96;59.67;98097.34;4907965;29;20060;-88
2022/01/14 03:03:45;;;;;;;3.20;2.58;;;;;;;-8.96;59.38;98090.41;4874804;29;20554;-84
2022/01/14 03:06:12;;;;;;;3.30;2.30;;;;;;;-8.93;59.19;98089.50;4873437;29;20044;-84
2022/01/14 03:08:39;;;;;;;4.68;2.85;;;;;;;-8.95;59.28;98080.91;4886589;29;20056;-87
2022/01/14 03:11:10;;;;;;;3.22;2.30;;;;;;;-9.06;59.43;98068.22;4868808;29;20428;-86
2022/01/14 03:13:36;;;;;;;4.47;2.65;;;;;;;-9.17;59.79;98059.84;4869009;29;20036;-84
2022/01/14 03:16:04;;;;;;;5.55;2.80;;;;;;;-9.11;59.92;98054.50;4885181;29;20052;-85
2022/01/14 03:18:43;;;;;;;5.50;2.78;;;;;;;-9.08;60.12;98050.13;4887845;29;20047;-84
2022/01/14 03:21:12;;;;;;;5.28;2.83;;;;;;;-9.09;59.72;98043.25;4870909;29;20058;-83
2022/01/14 03:23:52;;;;;;;;;;;;;;;-9.23;60.18;98040.09;4900461;29;20068;-83
2022/01/14 03:26:19;;;;;;;5.32;2.92;;;;;;;-9.18;60.23;98022.72;4884588;29;19975;-83
2022/01/14 03:28:47;;;;;;;4.55;2.38;;;;;;;-9.13;60.43;98020.91;4889286;29;20127;-86
2022/01/14 03:31:33;;;;;;;5.25;3.10;;;;;;;-9.09;60.16;98007.00;4872681;29;20504;-85
2022/01/14 03:33:59;;;;;;;6.85;3.20;;;;;;;-9.06;60.21;97995.75;4884244;29;20052;-88
2022/01/14 03:36:25;;;;;;;3.25;2.40;;;;;;;-9.05;60.10;97987.94;4900434;29;20054;-87
2022/01/14 03:38:51;;;;;;;6.30;3.60;;;;;;;-9.10;60.23;97989.78;4900145;29;20401;-85
2022/01/14 03:41:17;;;;;;;4.70;3.03;;;;;;;-9.28;60.66;97982.44;4884835;29;20416;-87
2022/01/14 03:43:43;;;;;;;6.57;2.40;;;;;;;-9.26;61.19;97982.38;4885410;29;20064;-86
2022/01/14 03:46:10;;;;;;;6.78;3.22;;;;;;;-9.21;61.41;97971.06;4854358;29;20160;-87
2022/01/14 03:48:36;;;;;;;5.28;3.30;;;;;;;-9.15;60.99;97976.06;4884285;29;20044;-87
2022/01/14 03:51:02;;;;;;;6.72;3.22;;;;;;;-9.20;61.36;97946.88;4899124;29;20060;-81
2022/01/14 03:53:29;;;;;;;4.68;2.78;;;;;;;-9.18;61.22;97960.63;4900150;29;20119;-86
2022/01/14 03:55:55;;;;;;;6.45;3.67;;;;;;;-9.34;61.71;97943.75;4868515;29;20168;-86
2022/01/14 03:58:21;;;;;;;3.33;2.83;;;;;;;-9.25;61.98;97937.50;4877826;29;20052;-86
2022/01/14 04:00:47;;;;;;;8.05;3.85;;;;;;;-9.25;62.10;97938.38;4923919;29;20051;-87
2022/01/14 04:03:13;;;;;;;21.58;4.00;;;;;;;-9.22;62.01;97930.53;4966600;28;20054;-85
2022/01/14 04:05:39;;;;;;;8.05;2.38;;;;;;;-9.13;61.97;97943.25;4916582;28;20058;-85
2022/01/14 04:08:05;;;;;;;12.93;4.10;;;;;;;-9.14;61.89;97930.34;4976550;28;20383;-88
2022/01/14 04:10:31;;;;;;;5.32;3.67;;;;;;;-9.10;61.98;97919.03;4911020;28;20110;-86
2022/01/14 04:13:13;;;;;;;7.50;3.83;;;;;;;-9.12;62.15;97919.06;4926107;28;20050;-86
2022/01/14 04:15:45;;;;;;;6.03;3.58;;;;;;;-9.20;62.30;97904.63;4957468;28;20157;-83
2022/01/14 04:18:19;;;;;;;3.65;1.83;;;;;;;-9.22;62.59;97899.47;4925760;28;20489;-86
2022/01/14 04:20:48;;;;;;;10.35;3.50;;;;;;;-9.30;63.03;97899.66;4911403;28;20035;-86
2022/01/14 04:23:18;;;;;;;5.32;3.67;;;;;;;-9.22;63.05;97907.22;4956511;28;20050;-88
2022/01/14 04:25:47;;;;;;;7.82;4.20;;;;;;;-9.14;63.15;97905.34;4910605;28;20129;-88
2022/01/14 04:28:13;;;;;;;5.78;3.15;;;;;;;-9.20;63.24;97905.47;4939879;28;20495;-84
2022/01/14 04:30:39;;;;;;;6.95;2.88;;;;;;;-9.27;63.62;97903.91;4915604;29;20059;-82
2022/01/14 04:33:06;;;;;;;4.53;2.75;;;;;;;-9.25;63.73;97902.16;4875456;29;20482;-78
2022/01/14 04:35:33;;;;;;;6.88;2.97;;;;;;;-9.23;65.25;97889.16;4890956;29;20522;-79
2022/01/14 04:37:59;;;;;;;7.47;3.70;;;;;;;-9.17;64.58;97883.84;4875562;29;20427;-80
2022/01/14 04:40:25;;;;;;;8.48;3.88;;;;;;;-9.08;64.25;97879.28;4937844;29;20134;-80
2022/01/14 04:42:55;;;;;;;10.60;4.15;;;;;;;-9.12;64.87;97867.31;4907529;29;20047;-86
2022/01/14 04:48:14;;;;;;;5.65;3.67;;;;;;;-9.03;64.92;97866.22;4903579;29;20594;-80
2022/01/14 04:50:41;;;;;;;5.82;3.55;;;;;;;-9.06;64.92;97861.97;4906704;29;20403;-83
2022/01/14 04:53:08;;;;;;;4.28;3.00;;;;;;;-9.10;64.94;97855.19;4954389;29;20180;-82
2022/01/14 04:55:34;;;;;;;7.53;3.47;;;;;;;-9.14;65.44;97844.94;4880616;29;20060;-78
2022/01/14 04:58:01;;;;;;;7.57;3.00;;;;;;;-9.11;65.45;97843.13;4898611;29;20180;-83
2022/01/14 05:00:28;;;;;;;4.15;2.70;;;;;;;-9.05;65.12;97848.16;4898866;29;20055;-82
2022/01/14 05:02:55;;;;;;;6.82;3.95;;;;;;;-9.01;66.65;97817.84;4899927;29;20435;-84
2022/01/14 05:05:26;;;;;;;7.68;3.97;;;;;;;-8.41;68.90;97805.84;4886287;29;20123;-81
2022/01/14 05:07:51;;;;;;;8.50;4.22;;;;;;;-7.96;69.84;97800.16;4898283;29;20146;-82
2022/01/14 05:12:44;;;;;;;3.75;2.80;;;;;;;-8.15;63.02;97800.72;4902261;29;20067;-80
2022/01/14 05:15:11;;;;;;;8.63;4.20;;;;;;;-8.24;62.70;97800.97;4901904;29;20588;-82
2022/01/14 05:17:37;;;;;;;9.55;4.93;;;;;;;-8.33;62.85;97775.34;4917423;29;20048;-83
2022/01/14 05:20:05;;;;;;;10.05;4.07;;;;;;;-8.43;63.03;97781.72;4917195;29;20095;-78
2022/01/14 05:22:31;;;;;;;5.40;3.50;;;;;;;-8.53;62.82;97777.72;4902244;29;20062;-77
2022/01/14 05:24:57;;;;;;;5.15;2.33;;;;;;;-8.60;63.27;97759.75;4917563;29;20465;-80
2022/01/14 05:27:23;;;;;;;12.00;4.50;;;;;;;-8.44;63.94;97756.69;4950723;29;20567;-80
2022/01/14 05:29:49;;;;;;;7.50;4.20;;;;;;;-8.26;63.26;97744.91;4958191;29;20526;-83
2022/01/14 05:32:15;;;;;;;12.35;4.40;;;;;;;-8.11;63.42;97729.72;4911834;29;20119;-83
2022/01/14 05:34:42;;;;;;;9.40;4.07;;;;;;;-7.96;62.81;97727.56;4925593;29;20513;-85
2022/01/14 05:37:08;;;;;;;10.55;4.35;;;;;;;-8.07;62.46;97713.19;4911306;29;20053;-84
2022/01/14 05:39:35;;;;;;;6.85;4.00;;;;;;;-7.90;62.41;97711.78;4941327;29;20051;-85
2022/01/14 05:42:01;;;;;;;7.70;3.90;;;;;;;-7.94;62.23;97715.38;4941269;29;20047;-76
2022/01/14 05:44:28;;;;;;;11.70;3.80;;;;;;;-7.98;62.23;97704.25;4942501;29;20066;-84
2022/01/14 05:46:54;;;;;;;16.27;4.15;;;;;;;-7.92;62.61;97692.84;4925773;28;20116;-80
2022/01/14 05:49:23;;;;;;;7.47;3.50;;;;;;;-7.93;62.24;97665.22;4928021;28;20046;-80
2022/01/14 05:51:49;;;;;;;16.20;3.47;;;;;;;-7.74;61.66;97671.50;4944410;28;20047;-82
2022/01/14 05:54:15;;;;;;;6.78;3.60;;;;;;;-7.69;61.13;97669.56;4944671;28;20146;-80
2022/01/14 05:56:41;;;;;;;7.35;3.65;;;;;;;-7.62;61.26;97665.88;4912071;28;20137;-83
2022/01/14 05:59:07;;;;;;;11.77;4.70;;;;;;;-7.63;60.80;97668.53;4976913;28;20129;-80
2022/01/14 06:01:33;;;;;;;7.28;4.30;;;;;;;-7.54;60.50;97647.44;4976585;28;20035;-80
2022/01/14 06:04:03;;;;;;;7.55;3.53;;;;;;;-7.48;60.43;97656.78;4927735;28;20085;-79
2022/01/14 06:06:29;;;;;;;7.20;3.30;;;;;;;-7.74;60.17;97653.34;4924278;28;20049;-80
2022/01/14 06:08:55;;;;;;;9.70;3.15;;;;;;;-7.82;60.41;97668.31;4955853;28;20046;-80
2022/01/14 06:11:21;;;;;;;5.80;3.28;;;;;;;-8.08;60.57;97666.56;4942946;28;20081;-78
2022/01/14 06:13:48;;;;;;;7.93;4.18;;;;;;;-8.06;60.91;97655.22;4921121;29;20106;-79
2022/01/14 06:16:14;;;;;;;4.80;3.05;;;;;;;-7.95;60.63;97661.81;4928442;29;20047;-83
2022/01/14 06:18:40;;;;;;;7.30;3.88;;;;;;;-8.01;60.72;97673.25;4933404;29;20074;-81
2022/01/14 06:21:06;;;;;;;15.15;4.68;;;;;;;-8.06;60.74;97654.38;4956598;29;20071;-80
2022/01/14 06:23:32;;;;;;;9.20;3.85;;;;;;;-7.81;63.44;97651.84;4959769;28;20396;-79
2022/01/14 06:25:58;;;;;;;10.85;3.28;;;;;;;-7.71;60.75;97645.44;4957667;29;20101;-77
2022/01/14 06:28:25;;;;;;;12.35;3.90;;;;;;;-7.78;60.50;97631.00;4933974;28;20043;-77
2022/01/14 06:30:51;;;;;;;10.60;4.43;;;;;;;-7.83;60.41;97645.84;4943594;28;20051;-80
2022/01/14 06:33:17;;;;;;;5.63;2.63;;;;;;;-7.80;60.57;97650.94;4912741;28;20650;-77
2022/01/14 06:35:45;;;;;;;9.68;4.47;;;;;;;-7.68;62.91;97652.25;4976269;28;20189;-78
2022/01/14 06:38:11;;;;;;;10.02;4.32;;;;;;;-7.76;60.62;97643.91;4939636;28;20490;-80
2022/01/14 06:40:37;;;;;;;8.48;4.68;;;;;;;-7.71;60.71;97650.63;4959803;28;20078;-80
2022/01/14 06:43:04;;;;;;;9.45;4.00;;;;;;;-7.70;60.50;97660.09;4945831;28;20049;-83
2022/01/14 06:45:31;;;;;;;8.23;4.43;;;;;;;-7.76;60.84;97662.91;4913816;28;20465;-82
2022/01/14 06:47:57;;;;;;;10.63;5.07;;;;;;;-7.92;61.26;97651.34;4912130;28;20522;-79
2022/01/14 06:50:23;;;;;;;11.15;5.63;;;;;;;-7.94;62.01;97648.78;4926775;28;20513;-77
2022/01/14 06:52:49;;;;;;;12.30;6.35;;;;;;;-7.83;62.39;97638.06;4942826;28;20043;-80
2022/01/14 06:55:15;;;;;;;15.48;6.65;;;;;;;-7.83;62.70;97630.28;4942085;28;20070;-81
2022/01/14 06:57:41;;;;;;;10.07;5.05;;;;;;;-7.71;62.69;97634.19;4928017;28;20077;-87
2022/01/14 07:00:11;;;;;;;11.35;6.05;;;;;;;-7.77;62.34;97613.69;4944214;28;20043;-84
2022/01/14 07:02:38;;;;;;;5.28;3.13;;;;;;;-8.01;62.84;97610.16;4945059;28;20035;-86
2022/01/14 07:05:04;;;;;;;8.43;4.35;;;;;;;-8.10;63.53;97601.78;4928345;28;20544;-85
2022/01/14 07:07:31;;;;;;;9.65;4.97;;;;;;;-8.02;63.51;97593.75;4936836;28;20046;-86
2022/01/14 07:09:57;;;;;;;7.43;4.22;;;;;;;-8.12;64.11;97577.69;4944051;29;20091;-84
2022/01/14 07:12:36;;;;;;;9.02;4.70;;;;;;;-8.12;63.60;97582.03;4911668;29;20114;-83
2022/01/14 07:15:06;;;;;;;7.60;4.25;;;;;;;-8.16;64.05;97583.88;4924523;29;20054;-83
2022/01/14 07:17:32;;;;;;;8.32;4.05;;;;;;;-8.17;64.00;97579.56;4912507;29;20072;-84
2022/01/14 07:20:05;;;;;;;10.65;4.75;;;;;;;-8.24;64.02;97583.25;4906077;29;20052;-85
2022/01/14 07:22:31;;;;;;;7.60;4.07;;;;;;;-8.25;63.96;97560.84;4870407;29;20064;-84
2022/01/14 07:24:58;;;;;;;6.32;3.97;;;;;;;-8.19;63.72;97534.72;4912327;29;20136;-81
2022/01/14 07:27:25;;;;;;;10.38;4.72;;;;;;;-8.17;64.15;97545.03;4919097;29;20058;-82
2022/01/14 07:29:51;;;;;;;11.68;4.68;;;;;;;-8.24;63.82;97536.59;4887473;29;20047;-81
2022/01/14 07:32:17;;;;;;;6.05;3.55;;;;;;;-8.27;63.67;97531.53;4902326;29;20051;-81
2022/01/14 07:34:43;;;;;;;7.18;3.88;;;;;;;-8.33;63.67;97526.56;4868420;29;20044;-84
2022/01/14 07:37:09;;;;;;;10.27;4.50;;;;;;;-8.34;64.15;97514.50;4884874;29;20139;-86
2022/01/14 07:39:35;;;;;;;13.07;5.13;;;;;;;-8.24;63.89;97489.09;4923621;29;20063;-80
2022/01/14 07:42:01;;;;;;;9.10;4.55;;;;;;;-8.24;64.08;97487.34;4916016;29;20127;-84
2022/01/14 07:44:28;;;;;;;7.85;4.03;;;;;;;-8.23;63.73;97473.53;4884893;29;20130;-86
2022/01/14 07:46:54;;;;;;;9.90;5.20;;;;;;;-8.33;63.90;97470.38;4908011;29;20050;-86
2022/01/14 07:49:20;;;;;;;9.35;4.68;;;;;;;-8.47;64.12;97482.16;4934527;28;20581;-86
2022/01/14 07:51:46;;;;;;;17.40;5.75;;;;;;;-8.71;65.04;97458.78;4952433;28;20042;-86
2022/01/14 07:54:12;;;;;;;12.88;5.78;;;;;;;-8.57;64.95;97487.66;4950657;28;20053;-83
2022/01/14 07:56:45;;;;;;;33.75;15.95;;;;;;;-8.54;65.10;97480.66;4985083;28;20050;-86
2022/01/14 07:59:19;;;;;;;20.88;7.03;;;;;;;-8.40;65.00;97483.63;4937396;28;20038;-83
2022/01/14 08:01:46;;;;;;;14.60;6.38;;;;;;;-8.40;64.73;97474.13;4931558;28;20062;-86
2022/01/14 08:04:16;;;;;;;20.05;7.75;;;;;;;-8.47;64.93;97469.19;4930143;28;20129;-90
2022/01/14 08:06:48;;;;;;;12.95;6.03;;;;;;;-8.43;64.56;97461.25;4908589;28;20505;-87
2022/01/14 08:09:14;;;;;;;12.40;6.40;;;;;;;-8.51;64.58;97442.56;4947540;29;20098;-84
2022/01/14 08:11:41;;;;;;;12.63;5.68;;;;;;;-8.37;64.18;97442.09;4894844;29;20051;-80
2022/01/14 08:14:07;;;;;;;13.52;6.05;;;;;;;-8.31;63.84;97410.75;4929956;28;20158;-81
2022/01/14 08:16:33;;;;;;;17.13;6.72;;;;;;;-8.47;63.54;97409.63;4957002;29;20047;-85
2022/01/14 08:19:00;;;;;;;21.15;6.68;;;;;;;-8.33;63.97;97407.34;4929588;29;20054;-82
2022/01/14 08:21:25;;;;;;;12.82;6.18;;;;;;;-8.44;63.30;97393.97;4976100;29;20054;-81
2022/01/14 08:23:51;;;;;;;9.18;4.85;;;;;;;-8.56;63.82;97375.38;4919425;29;20082;-84
2022/01/14 08:26:20;;;;;;;16.02;7.28;;;;;;;-8.43;63.90;97364.56;4912216;28;20410;-81
2022/01/14 08:28:46;;;;;;;21.80;8.18;;;;;;;-8.37;63.61;97349.63;4910256;28;20039;-83
2022/01/14 08:31:13;;;;;;;13.80;5.10;;;;;;;-8.53;63.61;97353.69;4909961;28;20049;-85
2022/01/14 08:33:42;;;;;;;8.68;5.57;;;;;;;-8.66;64.37;97352.44;4926263;28;20086;-83
2022/01/14 08:36:08;;;;;;;19.73;10.07;;;;;;;-8.52;64.35;97349.34;4906238;29;20047;-83
2022/01/14 08:38:34;;;;;;;15.35;7.03;;;;;;;-8.41;64.54;97321.31;4905622;28;20063;-82
2022/01/14 08:41:00;;;;;;;14.95;6.75;;;;;;;-8.26;64.04;97320.72;4932961;29;20054;-85
2022/01/14 08:43:26;;;;;;;13.07;5.28;;;;;;;-8.36;63.01;97340.09;4923788;29;20108;-84
2022/01/14 08:45:52;;;;;;;13.40;6.38;;;;;;;-8.58;62.73;97320.16;4941856;29;20047;-83
2022/01/14 08:48:18;;;;;;;10.35;5.30;;;;;;;-8.70;63.04;97314.59;4958742;29;20039;-85
2022/01/14 08:50:45;;;;;;;8.05;4.05;;;;;;;-8.76;63.57;97318.25;4958776;29;20047;-84
2022/01/14 08:53:13;;;;;;;10.90;5.25;;;;;;;-8.86;63.38;97324.66;4941934;29;20492;-84
2022/01/14 08:55:39;;;;;;;10.65;4.70;;;;;;;-8.88;64.08;97336.78;4927040;29;20363;-85
2022/01/14 08:58:05;;;;;;;12.27;4.65;;;;;;;-8.83;64.03;97317.63;4926526;29;20057;-85
2022/01/14 09:00:31;;;;;;;10.77;4.63;;;;;;;-8.82;63.59;97308.09;4941478;29;20051;-84
2022/01/14 09:02:57;;;;;;;10.68;4.68;;;;;;;-8.72;63.83;97306.88;4910042;29;20411;-84
2022/01/14 09:05:24;;;;;;;12.90;5.78;;;;;;;-8.85;63.40;97290.09;4894222;29;20050;-83
2022/01/14 09:07:50;;;;;;;10.88;5.70;;;;;;;-8.86;63.78;97293.59;4910195;29;20134;-84
2022/01/14 09:10:16;;;;;;;6.60;3.42;;;;;;;-8.77;63.51;97259.59;4909302;29;20063;-83
2022/01/14 09:12:42;;;;;;;13.80;5.93;;;;;;;-8.62;62.99;97268.53;4894033;29;20039;-83
2022/01/14 09:15:09;;;;;;;16.10;4.93;;;;;;;-8.56;62.74;97271.75;4894414;29;20118;-85
2022/01/14 09:17:36;;;;;;;9.95;4.88;;;;;;;-8.70;62.85;97249.84;4926089;29;20065;-85
2022/01/14 09:20:05;;;;;;;7.47;4.15;;;;;;;-8.83;62.54;97246.88;4941982;29;20047;-84
2022/01/14 09:22:32;;;;;;;8.30;4.05;;;;;;;-8.93;63.34;97230.81;4910608;29;20047;-83
2022/01/14 09:24:59;;;;;;;10.32;4.40;;;;;;;-8.91;63.32;97230.75;4942821;29;20101;-83
2022/01/14 09:27:29;;;;;;;8.75;5.13;;;;;;;-8.81;63.43;97239.88;4926372;29;20514;-81
2022/01/14 09:29:56;;;;;;;7.82;3.80;;;;;;;-8.86;62.89;97205.56;4925069;29;20207;-80
2022/01/14 09:32:22;;;;;;;8.95;4.93;;;;;;;-8.90;63.70;97224.69;4941395;29;20553;-84
2022/01/14 09:34:48;;;;;;;10.00;4.80;;;;;;;-8.98;63.95;97217.22;4942094;29;20050;-79
2022/01/14 09:37:14;;;;;;;8.05;4.32;;;;;;;-9.05;64.19;97214.00;4924878;29;20036;-81
2022/01/14 09:39:43;;;;;;;11.00;4.78;;;;;;;-9.40;64.89;97199.72;4909332;29;20050;-79
2022/01/14 09:42:13;;;;;;;8.32;4.10;;;;;;;-9.29;64.74;97183.81;4940625;29;20047;-82
2022/01/14 09:44:40;;;;;;;8.52;4.18;;;;;;;-9.33;64.90;97184.81;4894805;29;20059;-87
2022/01/14 09:47:06;;;;;;;7.72;4.10;;;;;;;-9.24;64.29;97189.69;4924980;29;20043;-83
2022/01/14 09:49:32;;;;;;;11.50;5.65;;;;;;;-9.45;64.50;97193.84;4908852;29;20050;-80
2022/01/14 09:51:58;;;;;;;9.20;5.78;;;;;;;-9.35;65.28;97186.63;4940601;29;20050;-81
2022/01/14 09:54:25;;;;;;;9.52;5.03;;;;;;;-9.25;64.76;97188.00;4940001;29;20085;-89
2022/01/14 09:56:51;;;;;;;9.35;3.85;;;;;;;-9.15;64.81;97183.31;4893086;29;20498;-85
2022/01/14 09:59:18;;;;;;;8.27;3.92;;;;;;;-9.35;64.67;97179.69;4908934;29;20058;-80
2022/01/14 10:01:46;;;;;;;6.05;3.47;;;;;;;-9.28;64.61;97172.56;4940205;29;20141;-81
2022/01/14 10:04:22;;;;;;;12.00;5.28;;;;;;;-9.31;65.03;97177.84;4909044;29;20043;-80
2022/01/14 10:06:53;;;;;;;10.25;4.38;;;;;;;-9.43;64.90;97166.19;4910868;29;20047;-85
2022/01/14 10:09:33;;;;;;;7.78;3.95;;;;;;;-9.30;64.96;97171.78;4948706;29;20055;-92
2022/01/14 10:12:16;;;;;;;6.15;3.67;;;;;;;-9.42;64.85;97133.41;4942575;29;20842;-90
2022/01/14 10:14:54;;;;;;;5.03;3.10;;;;;;;-9.53;65.37;97133.78;4925487;29;20506;-84
2022/01/14 10:17:21;;;;;;;11.02;5.03;;;;;;;-9.54;65.80;97121.78;4934636;28;20223;-86
2022/01/14 10:19:48;;;;;;;8.20;3.83;;;;;;;-9.57;65.74;97114.97;4965380;28;20058;-81
2022/01/14 10:22:25;;;;;;;10.68;5.28;;;;;;;-9.57;66.56;97114.97;4964974;28;20046;-86
2022/01/14 10:24:57;;;;;;;11.05;5.32;;;;;;;-9.38;66.63;97098.78;4945453;28;20050;-84
2022/01/14 10:27:44;;;;;;;8.45;4.07;;;;;;;-9.28;65.89;97091.53;4943756;28;20046;-84
2022/01/14 10:30:13;;;;;;;8.48;4.68;;;;;;;-9.20;65.92;97113.63;4897244;28;20050;-80
2022/01/14 10:32:40;;;;;;;7.55;3.30;;;;;;;-9.26;65.25;97106.09;4943213;28;20072;-86
2022/01/14 10:35:07;;;;;;;10.05;4.63;;;;;;;-9.28;65.32;97110.50;4943733;28;20105;-84
2022/01/14 10:37:34;;;;;;;8.82;5.22;;;;;;;-9.20;65.72;97123.97;4896510;28;20057;-89
2022/01/14 10:40:00;;;;;;;11.65;4.82;;;;;;;-9.09;65.63;97121.00;4962843;28;20051;-88
2022/01/14 10:42:28;;;;;;;13.55;5.22;;;;;;;-8.93;65.32;97122.09;4960639;28;20081;-85
2022/01/14 10:44:54;;;;;;;9.88;4.78;;;;;;;-8.88;64.97;97124.50;4929316;28;20047;-85
2022/01/14 10:47:24;;;;;;;14.57;5.13;;;;;;;-8.77;64.60;97117.16;4977685;28;20525;-82
2022/01/14 10:49:56;;;;;;;9.52;4.80;;;;;;;-8.67;64.58;97120.25;4944228;28;20051;-85
2022/01/14 10:52:24;;;;;;;9.68;4.88;;;;;;;-8.80;64.52;97122.47;4943632;28;20051;-78
2022/01/14 10:54:55;;;;;;;9.02;4.80;;;;;;;-8.78;64.39;97120.66;4960834;28;20059;-77
2022/01/14 10:57:28;;;;;;;9.20;4.85;;;;;;;-8.61;66.38;97117.44;4911240;28;20042;-81
2022/01/14 10:59:57;;;;;;;15.85;4.95;;;;;;;-8.54;65.00;97118.84;4922723;28;20130;-83
2022/01/14 11:02:36;;;;;;;8.98;5.35;;;;;;;-8.62;64.30;97106.22;4925393;28;20054;-81
2022/01/14 11:05:07;;;;;;;10.63;4.85;;;;;;;-8.80;64.29;97101.75;4892886;29;20057;-81
2022/01/14 11:07:33;;;;;;;13.68;5.20;;;;;;;-8.81;64.44;97095.72;4955603;28;20047;-81
2022/01/14 11:09:59;;;;;;;12.27;4.35;;;;;;;-8.83;64.50;97101.88;4907334;29;20043;-79
2022/01/14 11:12:25;;;;;;;11.57;6.38;;;;;;;-8.85;64.38;97103.69;4938725;29;20144;-79
2022/01/14 11:14:52;;;;;;;8.98;4.45;;;;;;;-8.90;64.95;97092.66;4955876;29;20469;-80
2022/01/14 11:17:18;;;;;;;10.10;4.70;;;;;;;-8.97;65.24;97086.03;4907495;29;20043;-87
2022/01/14 11:19:47;;;;;;;9.07;5.47;;;;;;;-8.89;65.20;97086.59;4892094;29;20570;-85
2022/01/14 11:25:00;;;;;;;14.30;5.90;;;;;;;-8.86;65.30;97094.22;4924490;29;20051;-82
2022/01/14 11:27:26;;;;;;;19.52;8.15;;;;;;;-8.99;65.82;97091.25;4908331;29;20076;-85
2022/01/14 11:29:57;;;;;;;11.35;5.57;;;;;;;-8.84;67.82;97089.81;4923409;29;20053;-82
2022/01/14 11:32:27;;;;;;;15.98;6.60;;;;;;;-8.81;66.43;97064.66;4909209;29;20070;-86
2022/01/14 11:34:52;;;;;;;12.85;5.78;;;;;;;-8.82;66.74;97046.59;4924321;29;20082;-85
2022/01/14 11:37:34;;;;;;;19.63;7.10;;;;;;;-8.81;65.93;97022.41;4939574;28;20054;-79
2022/01/14 11:40:08;;;;;;;19.83;8.15;;;;;;;-8.71;65.80;97034.06;4939033;29;20043;-83
2022/01/14 11:42:59;;;;;;;20.48;7.28;;;;;;;-8.83;65.47;97029.41;4907592;29;20499;-86
2022/01/14 11:45:44;;;;;;;14.63;6.70;;;;;;;-8.72;65.42;97032.41;4939777;29;20039;-83
2022/01/14 11:48:34;;;;;;;15.15;7.05;;;;;;;-8.70;65.66;97025.41;4937887;29;20499;-78
2022/01/14 11:51:04;;;;;;;12.27;6.60;;;;;;;-8.78;65.52;97030.03;4923134;29;20179;-85
2022/01/14 11:53:38;;;;;;;13.43;6.13;;;;;;;-8.90;65.60;97020.19;4938310;29;20093;-84
2022/01/14 11:56:07;;;;;;;20.00;8.68;;;;;;;-8.89;65.96;97024.44;4907312;29;20085;-81
2022/01/14 11:58:33;;;;;;;23.60;9.27;;;;;;;-8.83;65.92;97022.47;4891023;29;20063;-81
2022/01/14 12:00:59;;;;;;;20.95;9.07;;;;;;;-8.76;66.23;97025.66;4954167;29;20062;-84
2022/01/14 12:03:28;;;;;;;11.93;7.55;;;;;;;-8.79;66.06;97023.19;4922387;29;20086;-79
2022/01/14 12:06:07;;;;;;;14.03;6.67;;;;;;;-8.74;66.10;97023.00;4906589;29;20045;-81